createdAt,value
2023-03-30T00:01:37.499Z,69.10
2023-03-30T00:04:08.480Z,69.20
2023-03-30T00:06:40.160Z,69.10
2023-03-30T00:09:09.513Z,69.10
2023-03-30T00:11:45.984Z,68.80
2023-03-30T00:14:20.612Z,68.80
2023-03-30T00:16:48.518Z,68.70
2023-03-30T00:19:18.137Z,68.60
2023-03-30T00:21:48.834Z,68.70
2023-03-30T00:24:18.975Z,68.60
2023-03-30T00:26:49.338Z,68.60
2023-03-30T00:29:19.862Z,68.80
2023-03-30T00:31:51.415Z,68.70
2023-03-30T00:34:23.488Z,68.30
2023-03-30T00:36:55.699Z,68.70
2023-03-30T00:39:27.557Z,68.40
2023-03-30T00:41:56.843Z,68.30
2023-03-30T00:45:04.188Z,68.30
2023-03-30T00:47:32.807Z,68.10
2023-03-30T00:50:04.566Z,68.30
2023-03-30T00:52:39.848Z,68.20
2023-03-30T00:55:10.219Z,68.20
2023-03-30T00:57:45.605Z,68.00
2023-03-30T01:00:19.866Z,68.10
2023-03-30T01:02:59.252Z,68.10
2023-03-30T01:05:31.821Z,67.90
2023-03-30T01:08:03.107Z,67.90
2023-03-30T01:10:35.977Z,67.80
2023-03-30T01:16:10.926Z,67.80
2023-03-30T01:19:19.968Z,67.80
2023-03-30T01:22:24.702Z,67.70
2023-03-30T01:25:24.985Z,67.80
2023-03-30T01:28:18.842Z,67.60
2023-03-30T01:31:16.101Z,67.90
2023-03-30T01:34:34.415Z,67.80
2023-03-30T01:37:41.463Z,67.70
2023-03-30T01:40:28.776Z,67.60
2023-03-30T01:43:07.955Z,67.60
2023-03-30T01:46:33.277Z,67.60
2023-03-30T01:49:33.926Z,67.40
2023-03-30T01:52:42.523Z,67.50
2023-03-30T01:55:17.422Z,67.40
2023-03-30T01:58:09.345Z,67.40
2023-03-30T02:00:42.147Z,67.40
2023-03-30T02:03:17.077Z,67.40
2023-03-30T02:05:52.902Z,67.40
2023-03-30T02:11:10.059Z,67.40
2023-03-30T02:13:41.012Z,67.30
2023-03-30T02:16:21.674Z,67.30
2023-03-30T02:18:55.060Z,67.30
2023-03-30T02:21:25.908Z,67.30
2023-03-30T02:23:58.155Z,67.30
2023-03-30T02:26:32.701Z,67.30
2023-03-30T02:29:04.739Z,67.30
2023-03-30T02:31:34.600Z,67.30
2023-03-30T02:34:20.748Z,67.30
2023-03-30T02:37:27.738Z,67.30
2023-03-30T02:40:26.212Z,67.20
2023-03-30T02:43:20.205Z,67.30
2023-03-30T02:46:05.645Z,67.20
2023-03-30T02:48:59.555Z,67.20
2023-03-30T02:51:58.917Z,67.00
2023-03-30T02:55:05.605Z,67.10
2023-03-30T02:58:15.744Z,67.00
2023-03-30T03:04:17.977Z,67.00
2023-03-30T03:06:58.583Z,67.10
2023-03-30T03:09:29.107Z,66.90
2023-03-30T03:12:05.320Z,67.00
2023-03-30T03:14:37.575Z,66.90
2023-03-30T03:17:18.506Z,67.60
2023-03-30T03:19:48.631Z,66.90
2023-03-30T03:22:18.314Z,66.80
2023-03-30T03:24:50.552Z,66.90
2023-03-30T03:27:31.327Z,66.80
2023-03-30T03:30:02.950Z,66.80
2023-03-30T03:32:35.243Z,66.80
2023-03-30T03:35:05.103Z,66.80
2023-03-30T03:37:38.921Z,66.70
2023-03-30T03:40:06.519Z,66.70
2023-03-30T03:42:36.491Z,66.60
2023-03-30T03:45:13.131Z,66.70
2023-03-30T03:47:44.575Z,66.70
2023-03-30T03:50:19.462Z,66.60
2023-03-30T03:52:52.426Z,66.60
2023-03-30T03:55:23.853Z,66.60
2023-03-30T03:57:54.291Z,66.50
2023-03-30T04:00:25.814Z,66.50
2023-03-30T04:03:01.379Z,66.50
2023-03-30T04:05:31.742Z,66.40
2023-03-30T04:08:03.923Z,66.50
2023-03-30T04:10:31.878Z,66.40
2023-03-30T04:13:12.118Z,66.50
2023-03-30T04:15:42.304Z,66.40
2023-03-30T04:18:15.734Z,66.40
2023-03-30T04:20:45.312Z,66.30
2023-03-30T04:23:17.331Z,66.40
2023-03-30T04:25:47.413Z,66.30
2023-03-30T04:28:18.881Z,66.40
2023-03-30T04:30:47.917Z,66.30
2023-03-30T04:33:19.577Z,66.30
2023-03-30T04:35:48.840Z,66.20
2023-03-30T04:38:24.980Z,66.10
2023-03-30T04:40:55.340Z,66.20
2023-03-30T04:43:31.259Z,66.10
2023-03-30T04:46:03.324Z,66.10
2023-03-30T04:48:38.619Z,66.20
2023-03-30T04:51:09.671Z,66.10
2023-03-30T04:53:38.482Z,66.10
2023-03-30T04:56:12.859Z,66.00
2023-03-30T04:58:42.146Z,65.90
2023-03-30T05:01:13.401Z,65.90
2023-03-30T05:03:49.820Z,65.80
2023-03-30T05:06:21.217Z,65.80
2023-03-30T05:08:51.933Z,65.80
2023-03-30T05:11:25.552Z,65.90
2023-03-30T05:13:56.506Z,65.80
2023-03-30T05:16:29.980Z,65.70
2023-03-30T05:18:59.326Z,65.50
2023-03-30T05:21:29.926Z,65.70
2023-03-30T05:24:01.473Z,65.80
2023-03-30T05:26:31.397Z,65.00
2023-03-30T05:29:01.477Z,64.90
2023-03-30T05:31:31.523Z,64.70
2023-03-30T05:34:01.702Z,64.80
2023-03-30T05:36:30.170Z,64.80
2023-03-30T05:38:59.288Z,64.80
2023-03-30T05:41:28.141Z,64.60
2023-03-30T05:44:00.108Z,64.80
2023-03-30T05:46:31.142Z,64.60
2023-03-30T05:49:04.316Z,64.40
2023-03-30T05:54:15.555Z,64.30
2023-03-30T05:56:45.993Z,64.20
2023-03-30T05:59:17.083Z,64.60
2023-03-30T06:01:48.756Z,64.70
2023-03-30T06:04:20.300Z,64.30
2023-03-30T06:06:54.329Z,64.40
2023-03-30T06:09:23.118Z,64.40
2023-03-30T06:11:51.893Z,64.10
2023-03-30T06:14:23.624Z,64.20
2023-03-30T06:16:53.580Z,64.30
2023-03-30T06:19:21.873Z,64.50
2023-03-30T06:21:51.268Z,64.10
2023-03-30T06:24:23.725Z,64.20
2023-03-30T06:27:06.547Z,64.20
2023-03-30T06:29:42.318Z,64.30
2023-03-30T06:32:12.167Z,64.40
2023-03-30T06:34:39.116Z,64.30
2023-03-30T06:37:10.107Z,64.20
2023-03-30T06:39:40.116Z,64.30
2023-03-30T06:42:08.493Z,64.10
2023-03-30T06:44:40.234Z,64.10
2023-03-30T06:47:10.462Z,64.00
2023-03-30T06:49:41.939Z,64.10
2023-03-30T06:52:13.692Z,64.00
2023-03-30T06:54:44.844Z,64.20
2023-03-30T06:57:15.745Z,64.10
2023-03-30T07:02:30.334Z,64.20
2023-03-30T07:05:03.299Z,64.20
2023-03-30T07:07:32.388Z,63.80
2023-03-30T07:10:03.280Z,63.80
2023-03-30T07:12:34.217Z,64.00
2023-03-30T07:15:04.033Z,63.90
2023-03-30T07:17:33.575Z,63.80
2023-03-30T07:20:03.986Z,63.80
2023-03-30T07:22:36.404Z,63.90
2023-03-30T07:25:09.116Z,64.00
2023-03-30T07:27:41.740Z,63.90
2023-03-30T07:30:21.746Z,63.70
2023-03-30T07:32:54.347Z,63.90
2023-03-30T07:35:26.633Z,63.80
2023-03-30T07:38:03.354Z,63.50
2023-03-30T07:40:38.655Z,63.70
2023-03-30T07:43:09.665Z,63.70
2023-03-30T07:45:39.219Z,63.80
2023-03-30T07:48:10.982Z,63.70
2023-03-30T07:50:40.331Z,63.70
2023-03-30T07:53:08.705Z,63.80
2023-03-30T07:55:39.845Z,63.70
2023-03-30T07:58:09.406Z,64.00
2023-03-30T08:00:42.762Z,64.20
2023-03-30T08:03:14.282Z,63.60
2023-03-30T08:05:46.245Z,63.70
2023-03-30T08:08:15.800Z,63.80
2023-03-30T08:10:48.841Z,63.50
2023-03-30T08:13:16.060Z,63.60
2023-03-30T08:15:48.862Z,63.50
2023-03-30T08:18:21.245Z,63.90
2023-03-30T08:20:59.873Z,63.30
2023-03-30T08:23:30.862Z,63.20
2023-03-30T08:26:02.176Z,63.40
2023-03-30T08:28:35.492Z,63.40
2023-03-30T08:31:12.506Z,63.40
2023-03-30T08:33:43.542Z,63.50
2023-03-30T08:36:16.374Z,63.20
2023-03-30T08:38:49.637Z,63.20
2023-03-30T08:41:40.373Z,63.10
2023-03-30T08:44:34.729Z,63.30
2023-03-30T08:47:08.706Z,63.30
2023-03-30T08:49:58.872Z,63.20
2023-03-30T08:52:28.841Z,63.20
2023-03-30T08:55:01.877Z,63.20
2023-03-30T08:58:07.011Z,63.10
2023-03-30T09:00:57.347Z,63.30
2023-03-30T09:03:51.683Z,63.00
2023-03-30T09:06:32.691Z,63.20
2023-03-30T09:09:04.358Z,63.00
2023-03-30T09:11:45.783Z,62.80
2023-03-30T09:14:59.744Z,63.00
2023-03-30T09:18:08.811Z,63.20
2023-03-30T09:20:42.677Z,63.30
2023-03-30T09:23:26.725Z,63.30
2023-03-30T09:25:53.670Z,63.20
2023-03-30T09:28:51.539Z,63.30
2023-03-30T09:31:47.042Z,63.40
2023-03-30T09:34:31.086Z,63.20
2023-03-30T09:37:18.625Z,63.40
2023-03-30T09:39:49.613Z,63.30
2023-03-30T09:42:43.418Z,63.40
2023-03-30T09:45:25.538Z,63.20
2023-03-30T09:47:56.931Z,63.20
2023-03-30T09:50:39.116Z,63.00
2023-03-30T09:53:32.646Z,62.90
2023-03-30T09:56:16.738Z,63.10
2023-03-30T09:58:46.860Z,63.20
2023-03-30T10:01:20.672Z,63.10
2023-03-30T10:04:12.849Z,62.90
2023-03-30T10:06:49.581Z,62.90
2023-03-30T10:15:01.397Z,63.00
2023-03-30T10:17:32.564Z,62.90
2023-03-30T10:23:20.444Z,62.90
2023-03-30T10:25:55.151Z,62.70
2023-03-30T10:28:35.789Z,62.60
2023-03-30T10:31:17.066Z,62.70
2023-03-30T10:33:47.109Z,62.60
2023-03-30T10:39:23.173Z,62.40
2023-03-30T10:41:58.574Z,62.40
2023-03-30T10:44:48.629Z,62.50
2023-03-30T10:48:00.471Z,62.20
2023-03-30T10:51:06.970Z,62.30
2023-03-30T10:53:59.696Z,62.50
2023-03-30T10:56:45.734Z,62.40
2023-03-30T10:59:49.042Z,62.40
2023-03-30T11:02:49.723Z,62.40
2023-03-30T11:05:28.761Z,62.20
2023-03-30T11:08:14.335Z,62.00
2023-03-30T11:10:45.861Z,62.30
2023-03-30T11:13:45.271Z,62.20
2023-03-30T11:16:37.812Z,62.20
2023-03-30T11:19:41.811Z,62.00
2023-03-30T11:22:56.458Z,62.20
2023-03-30T11:25:34.635Z,62.00
2023-03-30T11:28:18.173Z,61.90
2023-03-30T11:30:52.432Z,61.90
2023-03-30T11:33:40.495Z,61.90
2023-03-30T11:39:31.800Z,61.80
2023-03-30T11:42:09.405Z,61.80
2023-03-30T11:44:39.533Z,61.90
2023-03-30T11:47:34.767Z,61.80
2023-03-30T11:50:47.450Z,62.00
2023-03-30T11:53:34.976Z,61.90
2023-03-30T11:56:34.400Z,61.60
2023-03-30T11:59:29.901Z,61.90
2023-03-30T12:02:33.761Z,61.70
2023-03-30T12:05:23.952Z,62.00
2023-03-30T12:08:29.056Z,62.30
2023-03-30T12:11:11.848Z,62.40
2023-03-30T12:16:44.905Z,62.50
2023-03-30T12:19:56.717Z,62.50
2023-03-30T12:22:43.201Z,62.60
2023-03-30T12:25:54.398Z,62.50
2023-03-30T12:28:39.705Z,62.40
2023-03-30T12:31:23.983Z,62.30
2023-03-30T12:34:08.289Z,62.00
2023-03-30T12:36:49.420Z,62.40
2023-03-30T12:39:37.198Z,62.30
2023-03-30T12:42:28.701Z,62.50
2023-03-30T12:45:29.956Z,62.30
2023-03-30T12:48:34.763Z,62.50
2023-03-30T12:51:36.995Z,62.50
2023-03-30T12:54:48.251Z,62.40
2023-03-30T12:57:45.341Z,62.50
2023-03-30T13:00:39.946Z,62.50
2023-03-30T13:03:31.420Z,62.50
2023-03-30T13:06:06.750Z,62.30
2023-03-30T13:08:46.538Z,62.40
2023-03-30T13:11:31.749Z,62.40
2023-03-30T13:14:17.905Z,62.30
2023-03-30T13:17:02.922Z,62.20
2023-03-30T13:19:38.998Z,62.20
2023-03-30T13:22:19.202Z,62.30
2023-03-30T13:25:19.435Z,62.20
2023-03-30T13:27:55.011Z,62.30
2023-03-30T13:30:36.801Z,62.20
2023-03-30T13:33:18.412Z,62.20
2023-03-30T13:36:13.571Z,62.10
2023-03-30T13:39:17.204Z,62.20
2023-03-30T13:42:03.929Z,62.00
2023-03-30T13:45:18.427Z,62.10
2023-03-30T13:48:27.512Z,62.00
2023-03-30T13:51:06.579Z,62.50
2023-03-30T13:53:49.315Z,62.30
2023-03-30T13:56:24.585Z,62.60
2023-03-30T13:59:03.440Z,62.50
2023-03-30T14:01:39.601Z,62.80
2023-03-30T14:04:25.641Z,62.60
2023-03-30T14:09:40.314Z,61.90
2023-03-30T14:12:08.106Z,61.60
2023-03-30T14:14:48.953Z,61.40
2023-03-30T14:17:24.710Z,61.30
2023-03-30T14:20:46.690Z,61.40
2023-03-30T14:23:54.601Z,61.10
2023-03-30T14:26:31.834Z,61.20
2023-03-30T14:29:31.377Z,61.30
2023-03-30T14:32:09.710Z,61.40
2023-03-30T14:34:44.376Z,61.10
2023-03-30T14:37:21.058Z,61.00
2023-03-30T14:39:54.762Z,61.00
2023-03-30T14:42:30.022Z,60.90
2023-03-30T14:45:02.283Z,60.90
2023-03-30T14:47:31.605Z,60.20
2023-03-30T14:50:13.755Z,60.10
2023-03-30T14:52:47.597Z,60.30
2023-03-30T14:55:24.141Z,60.40
2023-03-30T14:57:52.524Z,60.20
2023-03-30T15:00:25.174Z,60.00
2023-03-30T15:03:07.153Z,59.80
2023-03-30T15:05:44.822Z,60.20
2023-03-30T15:08:28.001Z,60.60
2023-03-30T15:11:20.469Z,59.80
2023-03-30T15:13:56.963Z,60.10
2023-03-30T15:16:33.686Z,59.50
2023-03-30T15:19:21.202Z,59.40
2023-03-30T15:21:57.435Z,59.10
2023-03-30T15:24:34.736Z,59.20
2023-03-30T15:27:09.287Z,59.20
2023-03-30T15:29:50.642Z,58.90
2023-03-30T15:32:25.078Z,58.90
2023-03-30T15:35:24.619Z,58.90
2023-03-30T15:38:15.913Z,59.00
2023-03-30T15:40:53.401Z,59.00
2023-03-30T15:43:33.754Z,59.10
2023-03-30T15:46:14.129Z,58.70
2023-03-30T15:48:53.645Z,58.60
2023-03-30T15:51:39.738Z,59.20
2023-03-30T15:54:24.161Z,59.80
2023-03-30T15:57:10.574Z,59.80
2023-03-30T16:00:01.793Z,60.00
2023-03-30T16:02:37.334Z,60.00
2023-03-30T16:05:31.764Z,59.80
2023-03-30T16:08:03.424Z,59.90
2023-03-30T16:10:37.185Z,60.00
2023-03-30T16:13:14.383Z,60.30
2023-03-30T16:15:43.762Z,60.50
2023-03-30T16:18:17.111Z,60.70
2023-03-30T16:20:48.692Z,60.60
2023-03-30T16:23:18.830Z,60.60
2023-03-30T16:25:49.415Z,60.80
2023-03-30T16:28:21.116Z,61.00
2023-03-30T16:31:04.360Z,61.00
2023-03-30T16:33:35.487Z,60.80
2023-03-30T16:36:03.824Z,60.90
2023-03-30T16:38:34.295Z,60.90
2023-03-30T16:41:04.335Z,60.90
2023-03-30T16:43:33.190Z,60.50
2023-03-30T16:46:05.256Z,60.30
2023-03-30T16:48:38.260Z,60.60
2023-03-30T16:51:11.357Z,60.50
2023-03-30T16:53:46.155Z,61.00
2023-03-30T16:56:28.940Z,61.50
2023-03-30T16:58:58.205Z,61.40
2023-03-30T17:01:28.434Z,61.50
2023-03-30T17:04:01.759Z,61.50
2023-03-30T17:06:33.388Z,61.30
2023-03-30T17:09:01.892Z,61.40
2023-03-30T17:11:33.444Z,61.30
2023-03-30T17:14:01.795Z,61.20
2023-03-30T17:16:33.782Z,61.20
2023-03-30T17:19:04.534Z,60.60
2023-03-30T17:21:33.821Z,61.00
2023-03-30T17:24:06.690Z,60.90
2023-03-30T17:26:49.159Z,61.10
2023-03-30T17:29:19.095Z,60.80
2023-03-30T17:31:47.768Z,61.00
2023-03-30T17:37:00.122Z,60.80
2023-03-30T17:39:33.902Z,60.60
2023-03-30T17:42:07.006Z,60.40
2023-03-30T17:44:40.114Z,60.50
2023-03-30T17:47:11.572Z,60.30
2023-03-30T17:49:45.769Z,60.10
2023-03-30T17:52:18.340Z,60.30
2023-03-30T17:54:51.508Z,60.50
2023-03-30T17:57:19.592Z,60.30
2023-03-30T17:59:51.697Z,60.20
2023-03-30T18:02:24.187Z,60.40
2023-03-30T18:04:57.230Z,60.30
2023-03-30T18:07:33.632Z,60.40
2023-03-30T18:10:23.153Z,60.30
2023-03-30T18:12:54.055Z,60.50
2023-03-30T18:15:30.491Z,62.60
2023-03-30T18:18:06.482Z,63.00
2023-03-30T18:20:46.620Z,63.40
2023-03-30T18:23:18.883Z,63.80
2023-03-30T18:25:49.379Z,63.80
2023-03-30T18:28:58.584Z,64.20
2023-03-30T18:31:32.308Z,64.10
2023-03-30T18:34:03.485Z,64.20
2023-03-30T18:36:31.464Z,64.50
2023-03-30T18:39:00.568Z,64.60
2023-03-30T18:44:15.829Z,64.50
2023-03-30T18:46:49.214Z,64.90
2023-03-30T18:49:27.375Z,64.90
2023-03-30T18:51:58.035Z,65.10
2023-03-30T18:54:29.095Z,65.00
2023-03-30T18:57:02.885Z,64.80
2023-03-30T18:59:35.116Z,64.80
2023-03-30T19:02:05.545Z,64.80
2023-03-30T19:04:37.630Z,65.10
2023-03-30T19:07:10.998Z,65.10
2023-03-30T19:09:43.447Z,64.80
2023-03-30T19:12:18.436Z,64.90
2023-03-30T19:14:46.759Z,64.90
2023-03-30T19:17:17.082Z,65.00
2023-03-30T19:19:49.838Z,64.80
2023-03-30T19:22:20.977Z,64.70
2023-03-30T19:24:52.271Z,64.60
2023-03-30T19:27:25.034Z,64.60
2023-03-30T19:29:55.653Z,64.70
2023-03-30T19:32:27.948Z,64.70
2023-03-30T19:37:41.424Z,64.50
2023-03-30T19:40:23.340Z,64.60
2023-03-30T19:42:54.123Z,64.40
2023-03-30T19:45:24.854Z,64.70
2023-03-30T19:47:55.907Z,64.50
2023-03-30T19:50:32.305Z,64.40
2023-03-30T19:52:59.703Z,64.20
2023-03-30T19:58:14.933Z,64.60
2023-03-30T20:00:43.965Z,64.30
2023-03-30T20:03:17.070Z,64.30
2023-03-30T20:05:53.433Z,64.40
2023-03-30T20:08:26.466Z,64.30
2023-03-30T20:10:58.936Z,64.60
2023-03-30T20:13:31.283Z,64.90
2023-03-30T20:16:04.122Z,64.80
2023-03-30T20:18:43.190Z,64.90
2023-03-30T20:21:11.986Z,65.00
2023-03-30T20:23:43.758Z,65.70
2023-03-30T20:26:19.073Z,65.10
2023-03-30T20:28:48.969Z,65.00
2023-03-30T20:31:16.981Z,64.80
2023-03-30T20:33:48.498Z,65.00
2023-03-30T20:36:20.056Z,65.00
2023-03-30T20:38:52.439Z,64.80
2023-03-30T20:41:25.641Z,64.60
2023-03-30T20:43:57.514Z,64.60
2023-03-30T20:46:36.561Z,64.30
2023-03-30T20:49:08.956Z,64.20
2023-03-30T20:54:26.158Z,64.20
2023-03-30T20:56:56.687Z,64.20
2023-03-30T20:59:28.789Z,64.40
2023-03-30T21:02:01.487Z,64.20
2023-03-30T21:04:35.859Z,64.20
2023-03-30T21:07:04.349Z,64.00
2023-03-30T21:09:36.709Z,64.20
2023-03-30T21:12:05.981Z,64.10
2023-03-30T21:14:37.105Z,64.10
2023-03-30T21:17:07.281Z,64.10
2023-03-30T21:19:37.609Z,64.30
2023-03-30T21:22:05.523Z,64.10
2023-03-30T21:24:37.495Z,64.20
2023-03-30T21:27:07.717Z,64.30
2023-03-30T21:29:39.086Z,64.30
2023-03-30T21:32:10.368Z,64.90
2023-03-30T21:34:40.457Z,64.20
2023-03-30T21:37:11.381Z,64.10
2023-03-30T21:39:41.689Z,64.30
2023-03-30T21:42:09.918Z,64.20
2023-03-30T21:44:36.938Z,64.20
2023-03-30T21:47:07.300Z,64.30
2023-03-30T21:49:43.757Z,64.30
2023-03-30T21:52:11.899Z,64.30
2023-03-30T21:54:41.970Z,64.30
2023-03-30T21:57:14.082Z,64.30
2023-03-30T21:59:45.528Z,64.20
2023-03-30T22:02:16.499Z,64.20
2023-03-30T22:04:49.152Z,64.20
2023-03-30T22:07:20.027Z,64.20
2023-03-30T22:10:01.233Z,64.20
2023-03-30T22:12:34.425Z,64.20
2023-03-30T22:15:06.647Z,64.30
2023-03-30T22:17:42.188Z,64.20
2023-03-30T22:20:15.279Z,64.20
2023-03-30T22:22:42.492Z,64.20
2023-03-30T22:25:13.898Z,64.30
2023-03-30T22:27:46.977Z,64.20
2023-03-30T22:30:19.317Z,64.20
2023-03-30T22:32:54.049Z,64.10
2023-03-30T22:38:06.404Z,64.10
2023-03-30T22:40:36.530Z,64.10
2023-03-30T22:45:57.414Z,64.10
2023-03-30T22:48:25.865Z,64.00
2023-03-30T22:50:57.424Z,64.00
2023-03-30T22:53:29.029Z,63.90
2023-03-30T22:56:00.712Z,64.00
2023-03-30T22:58:31.855Z,63.90
2023-03-30T23:01:10.976Z,63.90
2023-03-30T23:03:42.840Z,63.90
2023-03-30T23:06:14.311Z,63.90
2023-03-30T23:08:48.256Z,63.90
2023-03-30T23:11:23.648Z,63.80
2023-03-30T23:16:40.182Z,63.80
2023-03-30T23:19:10.410Z,63.80
2023-03-30T23:21:38.508Z,63.60
2023-03-30T23:24:11.590Z,63.70
2023-03-30T23:26:42.150Z,63.60
2023-03-30T23:29:11.884Z,63.60
2023-03-30T23:31:42.262Z,63.70
2023-03-30T23:34:12.146Z,63.50
2023-03-30T23:36:44.441Z,63.50
2023-03-30T23:39:15.775Z,63.40
2023-03-30T23:41:48.664Z,63.30
2023-03-30T23:44:18.897Z,63.40
2023-03-30T23:46:48.406Z,63.40
2023-03-30T23:49:20.151Z,63.40
2023-03-30T23:51:51.728Z,63.40
2023-03-30T23:54:22.701Z,64.00
2023-03-30T23:57:04.921Z,63.40
2023-03-30T23:59:37.818Z,63.30
